createdAt,value
2023-04-02T00:00:52.819Z,83.1559
2023-04-02T00:01:54.241Z,83.3806
2023-04-02T00:02:55.730Z,83.2698
2023-04-02T00:03:57.173Z,83.0600
2023-04-02T00:04:58.598Z,82.8351
2023-04-02T00:05:59.964Z,82.8177
2023-04-02T00:07:01.327Z,82.9505
2023-04-02T00:08:02.740Z,82.5702
2023-04-02T00:09:04.116Z,82.1834
2023-04-02T00:10:05.549Z,81.8969
2023-04-02T00:11:06.958Z,82.0007
2023-04-02T00:12:08.339Z,82.6131
2023-04-02T00:13:09.735Z,82.5909
2023-04-02T00:14:11.186Z,82.5885
2023-04-02T00:15:12.635Z,82.6180
2023-04-02T00:16:14.018Z,82.4943
2023-04-02T00:17:15.437Z,82.4435
2023-04-02T00:18:16.902Z,82.8210
2023-04-02T00:19:18.279Z,82.8151
2023-04-02T00:20:19.628Z,82.7103
2023-04-02T00:21:20.970Z,82.4258
2023-04-02T00:22:22.377Z,82.2624
2023-04-02T00:23:23.770Z,82.1609
2023-04-02T00:24:25.199Z,82.5608
2023-04-02T00:25:26.576Z,82.7038
2023-04-02T00:26:28.037Z,82.6299
2023-04-02T00:27:29.363Z,82.9484
2023-04-02T00:28:30.749Z,83.1533
2023-04-02T00:29:32.133Z,83.4670
2023-04-02T00:30:33.508Z,83.6261
2023-04-02T00:31:34.900Z,84.1362
2023-04-02T00:32:36.307Z,84.3582
2023-04-02T00:33:37.742Z,84.7467
2023-04-02T00:34:39.204Z,85.1289
2023-04-02T00:35:40.660Z,85.4362
2023-04-02T00:36:42.171Z,85.3598
2023-04-02T00:37:43.571Z,85.5808
2023-04-02T00:38:46.665Z,85.7873
2023-04-02T00:39:46.425Z,85.5739
2023-04-02T00:40:47.774Z,85.6739
2023-04-02T00:41:49.197Z,85.6009
2023-04-02T00:42:50.607Z,85.5832
2023-04-02T00:43:52.051Z,85.8466
2023-04-02T00:44:53.504Z,85.7575
2023-04-02T00:45:54.923Z,85.9391
2023-04-02T00:46:56.354Z,86.0833
2023-04-02T00:47:57.854Z,86.1631
2023-04-02T00:48:59.241Z,86.1503
2023-04-02T00:50:00.717Z,86.2558
2023-04-02T00:51:02.093Z,86.3009
2023-04-02T00:52:03.531Z,86.1324
2023-04-02T00:53:04.920Z,86.0732
2023-04-02T00:54:06.378Z,86.2859
2023-04-02T00:55:07.793Z,86.3946
2023-04-02T00:56:09.280Z,86.5359
2023-04-02T00:57:10.653Z,86.5079
2023-04-02T00:58:12.131Z,86.4084
2023-04-02T00:59:13.495Z,86.4089
2023-04-02T01:00:14.979Z,86.3217
2023-04-02T01:01:16.395Z,86.2362
2023-04-02T01:02:18.070Z,86.1906
2023-04-02T01:03:19.666Z,86.3838
2023-04-02T01:04:21.515Z,86.3561
2023-04-02T01:05:23.068Z,86.4095
2023-04-02T01:06:24.471Z,86.3722
2023-04-02T01:07:26.112Z,86.2677
2023-04-02T01:08:27.534Z,85.9878
2023-04-02T01:09:28.882Z,85.9303
2023-04-02T01:10:30.343Z,85.9363
2023-04-02T01:11:31.879Z,85.8736
2023-04-02T01:12:33.381Z,86.0687
2023-04-02T01:13:34.782Z,86.0528
2023-04-02T01:14:36.204Z,86.0227
2023-04-02T01:15:38.110Z,86.1239
2023-04-02T01:16:39.782Z,85.8540
2023-04-02T01:17:41.182Z,85.9778
2023-04-02T01:18:42.583Z,85.9178
2023-04-02T01:19:43.938Z,86.2104
2023-04-02T01:20:45.384Z,86.2134
2023-04-02T01:21:46.796Z,85.9978
2023-04-02T01:22:48.256Z,85.8185
2023-04-02T01:23:49.605Z,85.6889
2023-04-02T01:24:50.993Z,85.7552
2023-04-02T01:25:52.449Z,85.9341
2023-04-02T01:26:53.777Z,85.6894
2023-04-02T01:27:55.182Z,85.6818
2023-04-02T01:28:56.575Z,85.5832
2023-04-02T01:29:57.955Z,85.5559
2023-04-02T01:30:59.346Z,85.6063
2023-04-02T01:32:00.791Z,85.5236
2023-04-02T01:33:02.255Z,85.6537
2023-04-02T01:34:03.674Z,85.6074
2023-04-02T01:35:05.039Z,85.6302
2023-04-02T01:36:06.419Z,85.7649
2023-04-02T01:37:07.813Z,85.6963
2023-04-02T01:38:09.205Z,85.6955
2023-04-02T01:39:10.628Z,85.7083
2023-04-02T01:40:12.023Z,85.9884
2023-04-02T01:41:13.407Z,86.0558
2023-04-02T01:42:14.824Z,85.9964
2023-04-02T01:43:16.195Z,85.7940
2023-04-02T01:44:17.553Z,85.6256
2023-04-02T01:45:18.955Z,85.6594
2023-04-02T01:46:20.435Z,85.7668
2023-04-02T01:47:21.768Z,85.5085
2023-04-02T01:48:23.208Z,85.3297
2023-04-02T01:49:24.573Z,85.1001
2023-04-02T01:50:25.977Z,85.1715
2023-04-02T01:51:27.394Z,84.7272
2023-04-02T01:52:28.882Z,84.5983
2023-04-02T01:53:30.222Z,84.8552
2023-04-02T01:54:31.665Z,84.7694
2023-04-02T01:55:33.328Z,84.6123
2023-04-02T01:56:35.179Z,84.7569
2023-04-02T01:57:36.572Z,84.4495
2023-04-02T01:58:37.950Z,84.2031
2023-04-02T01:59:39.369Z,84.1017
2023-04-02T02:00:40.902Z,84.1299
2023-04-02T02:01:42.467Z,84.2509
2023-04-02T02:02:43.918Z,84.6357
2023-04-02T02:03:45.400Z,84.7387
2023-04-02T02:04:46.853Z,84.4981
2023-04-02T02:05:48.218Z,84.3843
2023-04-02T02:06:49.632Z,84.5684
2023-04-02T02:07:51.039Z,84.8150
2023-04-02T02:08:52.440Z,84.7732
2023-04-02T02:09:53.787Z,84.9503
2023-04-02T02:10:55.194Z,84.5271
2023-04-02T02:11:56.564Z,84.8116
2023-04-02T02:12:57.998Z,84.6151
2023-04-02T02:13:59.356Z,84.8389
2023-04-02T02:15:00.814Z,85.1038
2023-04-02T02:16:02.189Z,85.1991
2023-04-02T02:17:03.575Z,85.0476
2023-04-02T02:18:04.927Z,84.7656
2023-04-02T02:19:06.322Z,84.4531
2023-04-02T02:20:07.741Z,84.5390
2023-04-02T02:21:09.114Z,84.6801
2023-04-02T02:22:10.547Z,84.7075
2023-04-02T02:23:11.936Z,84.6594
2023-04-02T02:24:13.414Z,84.6448
2023-04-02T02:25:14.827Z,85.0320
2023-04-02T02:26:16.238Z,85.0437
2023-04-02T02:27:17.587Z,84.5707
2023-04-02T02:28:19.002Z,83.9919
2023-04-02T02:29:20.384Z,83.9865
2023-04-02T02:30:21.770Z,84.5742
2023-04-02T02:31:23.270Z,84.6594
2023-04-02T02:32:24.701Z,83.8536
2023-04-02T02:33:26.079Z,83.6148
2023-04-02T02:34:27.469Z,83.4209
2023-04-02T02:35:28.983Z,83.5082
2023-04-02T02:36:30.364Z,83.8515
2023-04-02T02:37:31.741Z,84.0389
2023-04-02T02:38:33.147Z,83.9216
2023-04-02T02:39:34.635Z,83.1414
2023-04-02T02:40:36.049Z,82.8075
2023-04-02T02:41:37.441Z,82.9357
2023-04-02T02:42:38.832Z,83.0927
2023-04-02T02:43:40.272Z,83.1653
2023-04-02T02:44:41.670Z,83.0197
2023-04-02T02:45:43.071Z,83.2544
2023-04-02T02:46:44.437Z,83.3348
2023-04-02T02:47:45.885Z,83.4445
2023-04-02T02:48:47.217Z,83.7233
2023-04-02T02:49:48.632Z,83.6515
2023-04-02T02:50:50.060Z,83.5275
2023-04-02T02:51:51.441Z,83.6851
2023-04-02T02:52:52.849Z,83.5606
2023-04-02T02:53:54.249Z,83.6197
2023-04-02T02:54:55.917Z,83.5778
2023-04-02T02:55:57.331Z,83.4519
2023-04-02T02:56:58.716Z,83.3398
2023-04-02T02:58:00.142Z,83.5318
2023-04-02T02:59:01.516Z,83.5774
2023-04-02T03:00:02.962Z,83.5079
2023-04-02T03:01:04.402Z,83.4789
2023-04-02T03:02:05.762Z,83.6274
2023-04-02T03:03:07.238Z,83.2569
2023-04-02T03:04:09.000Z,83.0328
2023-04-02T03:05:10.674Z,83.0184
2023-04-02T03:06:12.100Z,82.7005
2023-04-02T03:07:13.485Z,82.8218
2023-04-02T03:08:14.975Z,82.9823
2023-04-02T03:09:16.398Z,83.1376
2023-04-02T03:10:17.816Z,82.8525
2023-04-02T03:11:19.277Z,82.8171
2023-04-02T03:12:20.685Z,82.9593
2023-04-02T03:13:22.066Z,83.0886
2023-04-02T03:14:23.446Z,82.8089
2023-04-02T03:15:24.798Z,83.2179
2023-04-02T03:16:26.297Z,82.9681
2023-04-02T03:17:27.732Z,83.3575
2023-04-02T03:18:29.155Z,83.3585
2023-04-02T03:19:30.566Z,83.5118
2023-04-02T03:20:31.951Z,83.3683
2023-04-02T03:21:33.399Z,82.9036
2023-04-02T03:22:34.776Z,82.7418
2023-04-02T03:23:36.164Z,82.9033
2023-04-02T03:24:37.524Z,82.8976
2023-04-02T03:25:38.979Z,83.0433
2023-04-02T03:26:40.308Z,82.9560
2023-04-02T03:27:41.755Z,83.0766
2023-04-02T03:28:43.135Z,83.1860
2023-04-02T03:29:44.575Z,83.4856
2023-04-02T03:30:46.028Z,82.8490
2023-04-02T03:31:47.585Z,82.8339
2023-04-02T03:32:49.112Z,83.1565
2023-04-02T03:33:50.596Z,82.9579
2023-04-02T03:34:52.059Z,82.8791
2023-04-02T03:35:53.611Z,82.8121
2023-04-02T03:36:55.065Z,82.7156
2023-04-02T03:37:56.547Z,82.7559
2023-04-02T03:38:58.105Z,82.8534
2023-04-02T03:39:59.594Z,82.8250
2023-04-02T03:41:01.173Z,82.7939
2023-04-02T03:42:02.553Z,82.8896
2023-04-02T03:43:04.015Z,83.0860
2023-04-02T03:44:05.514Z,82.9096
2023-04-02T03:45:07.156Z,83.0835
2023-04-02T03:46:08.926Z,82.7574
2023-04-02T03:47:10.381Z,82.8754
2023-04-02T03:48:11.841Z,83.2051
2023-04-02T03:49:13.324Z,83.1459
2023-04-02T03:50:14.796Z,83.3294
2023-04-02T03:51:16.307Z,83.3654
2023-04-02T03:52:17.779Z,83.3534
2023-04-02T03:53:19.242Z,83.3354
2023-04-02T03:54:20.720Z,83.5704
2023-04-02T03:55:22.253Z,83.7366
2023-04-02T03:56:23.636Z,83.7673
2023-04-02T03:57:25.174Z,83.8185
2023-04-02T03:58:26.721Z,83.8596
2023-04-02T03:59:28.283Z,83.7881
2023-04-02T04:00:29.703Z,83.9703
2023-04-02T04:01:31.209Z,83.9310
2023-04-02T04:02:32.652Z,83.9063
2023-04-02T04:03:34.181Z,84.0416
2023-04-02T04:04:35.730Z,83.8992
2023-04-02T04:05:37.456Z,83.7772
2023-04-02T04:06:39.097Z,83.7040
2023-04-02T04:07:40.520Z,83.7331
2023-04-02T04:08:41.949Z,82.3048
2023-04-02T04:09:43.413Z,80.7100
2023-04-02T04:10:44.890Z,80.5026
2023-04-02T04:11:46.346Z,80.9693
2023-04-02T04:12:47.915Z,80.9315
2023-04-02T04:13:49.384Z,80.7668
2023-04-02T04:14:50.851Z,80.3936
2023-04-02T04:15:52.275Z,80.5441
2023-04-02T04:16:54.003Z,80.5490
2023-04-02T04:17:55.950Z,80.7252
2023-04-02T04:18:57.396Z,80.7502
2023-04-02T04:19:58.856Z,80.5275
2023-04-02T04:21:00.396Z,80.3296
2023-04-02T04:22:01.850Z,80.4868
2023-04-02T04:23:03.268Z,80.2839
2023-04-02T04:24:04.863Z,80.4733
2023-04-02T04:25:06.285Z,80.6688
2023-04-02T04:26:07.731Z,80.7517
2023-04-02T04:27:09.182Z,80.6922
2023-04-02T04:28:10.653Z,80.4943
2023-04-02T04:29:12.070Z,80.5853
2023-04-02T04:30:13.641Z,80.5906
2023-04-02T04:31:15.103Z,80.6970
2023-04-02T04:32:16.609Z,80.8787
2023-04-02T04:33:18.246Z,81.2075
2023-04-02T04:34:19.697Z,81.4994
2023-04-02T04:35:21.144Z,81.2507
2023-04-02T04:36:22.586Z,81.1052
2023-04-02T04:37:24.077Z,81.0315
2023-04-02T04:38:25.562Z,81.2146
2023-04-02T04:39:27.154Z,80.9268
2023-04-02T04:40:28.602Z,80.8558
2023-04-02T04:41:30.049Z,80.9129
2023-04-02T04:42:31.491Z,81.2182
2023-04-02T04:43:32.982Z,81.1720
2023-04-02T04:44:34.445Z,81.0177
2023-04-02T04:45:36.221Z,80.7579
2023-04-02T04:46:37.882Z,80.7162
2023-04-02T04:47:39.373Z,80.6466
2023-04-02T04:48:40.813Z,80.2623
2023-04-02T04:49:42.266Z,80.3402
2023-04-02T04:50:43.705Z,80.6327
2023-04-02T04:51:45.179Z,80.6016
2023-04-02T04:52:46.632Z,80.1117
2023-04-02T04:53:48.185Z,80.3477
2023-04-02T04:54:49.663Z,80.2846
2023-04-02T04:55:51.104Z,80.5087
2023-04-02T04:56:52.606Z,80.6583
2023-04-02T04:57:54.040Z,80.7321
2023-04-02T04:58:55.454Z,80.4512
2023-04-02T04:59:56.878Z,80.0826
2023-04-02T05:00:58.321Z,80.3136
2023-04-02T05:01:59.793Z,80.3325
2023-04-02T05:03:01.373Z,80.3198
2023-04-02T05:04:02.791Z,80.5888
2023-04-02T05:05:04.317Z,80.7502
2023-04-02T05:06:05.764Z,80.9140
2023-04-02T05:07:07.235Z,80.6241
2023-04-02T05:08:08.664Z,80.7835
2023-04-02T05:09:10.080Z,80.9429
2023-04-02T05:10:11.563Z,80.4025
2023-04-02T05:11:13.045Z,80.1574
2023-04-02T05:12:14.493Z,80.4156
2023-04-02T05:13:15.913Z,80.5295
2023-04-02T05:14:17.416Z,80.5145
2023-04-02T05:15:18.867Z,80.5463
2023-04-02T05:16:20.383Z,80.5931
2023-04-02T05:17:21.870Z,80.7399
2023-04-02T05:18:23.372Z,80.4061
2023-04-02T05:19:24.824Z,80.4053
2023-04-02T05:20:26.263Z,80.4540
2023-04-02T05:21:27.669Z,80.3031
2023-04-02T05:22:29.109Z,80.5842
2023-04-02T05:23:30.614Z,80.5429
2023-04-02T05:24:31.998Z,80.4835
2023-04-02T05:25:33.669Z,80.3951
2023-04-02T05:26:35.183Z,80.4930
2023-04-02T05:27:36.681Z,80.6581
2023-04-02T05:28:38.132Z,80.8175
2023-04-02T05:29:39.647Z,80.4529
2023-04-02T05:30:41.251Z,79.9165
2023-04-02T05:31:42.795Z,79.5855
2023-04-02T05:32:44.367Z,79.6644
2023-04-02T05:33:45.866Z,79.7550
2023-04-02T05:34:47.343Z,80.0009
2023-04-02T05:35:48.867Z,80.1111
2023-04-02T05:36:50.356Z,80.1008
2023-04-02T05:37:51.809Z,79.7085
2023-04-02T05:38:53.277Z,79.7857
2023-04-02T05:39:54.792Z,79.8462
2023-04-02T05:40:56.275Z,79.8191
2023-04-02T05:41:57.761Z,79.8926
2023-04-02T05:42:59.197Z,79.8661
2023-04-02T05:44:00.665Z,79.6115
2023-04-02T05:45:02.134Z,79.7373
2023-04-02T05:46:03.804Z,79.8862
2023-04-02T05:47:05.244Z,79.9257
2023-04-02T05:48:06.748Z,79.9191
2023-04-02T05:49:08.183Z,79.6282
2023-04-02T05:50:09.663Z,79.7034
2023-04-02T05:51:11.094Z,79.7612
2023-04-02T05:52:12.556Z,79.8713
2023-04-02T05:53:14.095Z,79.8299
2023-04-02T05:54:15.563Z,79.7772
2023-04-02T05:55:17.386Z,79.7590
2023-04-02T05:56:18.813Z,79.7653
2023-04-02T05:57:20.270Z,79.6609
2023-04-02T05:58:35.573Z,79.6937
2023-04-02T05:59:21.738Z,79.6309
2023-04-02T06:00:23.180Z,79.7077
2023-04-02T06:01:24.620Z,79.5378
2023-04-02T06:02:26.086Z,79.3590
2023-04-02T06:03:27.745Z,79.3101
2023-04-02T06:04:29.223Z,79.2728
2023-04-02T06:05:30.641Z,79.5453
2023-04-02T06:06:32.075Z,79.6058
2023-04-02T06:07:33.516Z,79.3899
2023-04-02T06:08:35.057Z,79.5752
2023-04-02T06:09:36.519Z,79.4507
2023-04-02T06:10:37.972Z,79.5837
2023-04-02T06:11:39.417Z,79.5525
2023-04-02T06:12:40.922Z,79.6000
2023-04-02T06:13:42.406Z,79.6163
2023-04-02T06:14:43.935Z,79.6652
2023-04-02T06:15:47.247Z,79.0721
2023-04-02T06:16:46.801Z,79.0909
2023-04-02T06:17:48.301Z,79.1662
2023-04-02T06:18:49.789Z,79.1499
2023-04-02T06:19:51.251Z,79.2275
2023-04-02T06:20:52.720Z,79.2294
2023-04-02T06:21:54.124Z,79.0110
2023-04-02T06:22:55.623Z,79.2116
2023-04-02T06:23:57.102Z,78.9010
2023-04-02T06:24:58.543Z,79.0028
2023-04-02T06:26:00.013Z,78.5414
2023-04-02T06:27:01.491Z,78.3033
2023-04-02T06:28:02.982Z,78.1187
2023-04-02T06:29:04.465Z,78.2524
2023-04-02T06:30:05.917Z,78.1519
2023-04-02T06:31:07.552Z,77.7080
2023-04-02T06:32:08.992Z,77.8046
2023-04-02T06:33:10.521Z,77.9667
2023-04-02T06:34:12.000Z,78.1709
2023-04-02T06:35:13.442Z,78.1392
2023-04-02T06:36:14.878Z,78.3476
2023-04-02T06:37:16.252Z,78.3556
2023-04-02T06:38:17.745Z,78.3472
2023-04-02T06:39:19.184Z,78.5756
2023-04-02T06:40:20.640Z,78.2817
2023-04-02T06:41:22.861Z,77.6314
2023-04-02T06:42:24.331Z,77.8029
2023-04-02T06:43:25.780Z,77.8592
2023-04-02T06:44:27.254Z,78.0756
2023-04-02T06:45:28.681Z,77.9575
2023-04-02T06:46:30.172Z,77.5820
2023-04-02T06:47:31.704Z,77.4330
2023-04-02T06:48:33.280Z,77.6022
2023-04-02T06:49:34.701Z,77.5169
2023-04-02T06:50:36.168Z,77.5290
2023-04-02T06:51:37.609Z,77.4354
2023-04-02T06:52:39.072Z,77.6269
2023-04-02T06:53:40.517Z,77.6927
2023-04-02T06:54:41.948Z,77.7105
2023-04-02T06:55:43.422Z,77.8651
2023-04-02T06:56:44.779Z,77.8903
2023-04-02T06:57:46.244Z,77.9552
2023-04-02T06:58:47.709Z,77.6760
2023-04-02T06:59:49.132Z,77.2620
2023-04-02T07:00:50.513Z,77.1676
2023-04-02T07:01:51.998Z,77.1179
2023-04-02T07:02:55.152Z,77.1221
2023-04-02T07:03:58.447Z,77.2961
2023-04-02T07:05:00.864Z,76.4220
2023-04-02T07:06:02.273Z,76.2411
2023-04-02T07:07:03.734Z,76.0906
2023-04-02T07:08:05.208Z,76.4351
2023-04-02T07:09:07.641Z,76.0134
2023-04-02T07:10:09.172Z,75.7614
2023-04-02T07:11:10.649Z,75.9261
2023-04-02T07:12:12.062Z,76.2367
2023-04-02T07:13:13.533Z,76.6816
2023-04-02T07:14:15.002Z,76.0799
2023-04-02T07:15:16.586Z,75.8210
2023-04-02T07:16:18.093Z,76.0731
2023-04-02T07:17:19.640Z,75.6547
2023-04-02T07:18:21.198Z,75.7563
2023-04-02T07:19:22.769Z,75.8464
2023-04-02T07:20:24.238Z,75.9858
2023-04-02T07:21:25.683Z,76.6507
2023-04-02T07:22:27.091Z,76.1772
2023-04-02T07:23:28.560Z,76.2105
2023-04-02T07:24:30.030Z,76.0786
2023-04-02T07:25:31.487Z,75.8481
2023-04-02T07:26:32.932Z,75.2574
2023-04-02T07:27:34.379Z,75.2460
2023-04-02T07:28:35.859Z,75.1231
2023-04-02T07:29:37.271Z,75.0531
2023-04-02T07:30:38.688Z,75.0204
2023-04-02T07:31:40.230Z,74.9500
2023-04-02T07:32:41.674Z,74.7249
2023-04-02T07:33:43.081Z,74.9468
2023-04-02T07:34:44.485Z,75.0165
2023-04-02T07:35:46.028Z,74.8080
2023-04-02T07:36:47.441Z,74.2419
2023-04-02T07:37:48.894Z,74.1146
2023-04-02T07:38:50.303Z,74.3598
2023-04-02T07:39:51.809Z,73.7028
2023-04-02T07:40:53.238Z,74.2476
2023-04-02T07:41:54.568Z,73.7542
2023-04-02T07:42:56.038Z,73.6649
2023-04-02T07:43:57.524Z,73.7301
2023-04-02T07:44:58.926Z,73.3995
2023-04-02T07:46:00.339Z,73.6910
2023-04-02T07:47:01.834Z,73.8673
2023-04-02T07:48:03.495Z,74.1712
2023-04-02T07:49:05.010Z,73.8563
2023-04-02T07:50:06.491Z,73.0576
2023-04-02T07:51:07.919Z,72.8939
2023-04-02T07:52:09.373Z,71.8735
2023-04-02T07:53:10.786Z,71.6689
2023-04-02T07:54:12.254Z,71.9957
2023-04-02T07:55:13.672Z,72.0767
2023-04-02T07:56:15.104Z,71.3585
2023-04-02T07:57:16.556Z,70.4023
2023-04-02T07:58:17.975Z,70.1776
2023-04-02T07:59:19.442Z,70.1231
2023-04-02T08:00:20.860Z,69.7116
2023-04-02T08:01:22.279Z,70.4181
2023-04-02T08:02:23.703Z,71.8334
2023-04-02T08:03:25.318Z,72.4128
2023-04-02T08:04:26.845Z,72.4642
2023-04-02T08:05:28.331Z,72.5130
2023-04-02T08:06:29.776Z,72.9122
2023-04-02T08:07:31.229Z,72.6700
2023-04-02T08:08:32.685Z,72.3474
2023-04-02T08:09:34.123Z,72.2317
2023-04-02T08:10:35.639Z,72.9690
2023-04-02T08:11:37.154Z,72.8950
2023-04-02T08:12:38.678Z,72.7656
2023-04-02T08:13:40.131Z,73.0022
2023-04-02T08:14:41.639Z,72.1815
2023-04-02T08:15:43.028Z,72.3932
2023-04-02T08:16:44.586Z,73.6029
2023-04-02T08:17:46.029Z,73.8985
2023-04-02T08:18:47.473Z,73.3872
2023-04-02T08:19:55.130Z,72.5232
2023-04-02T08:20:49.011Z,72.3407
2023-04-02T08:21:50.466Z,72.5788
2023-04-02T08:22:51.945Z,72.7944
2023-04-02T08:23:53.371Z,73.0368
2023-04-02T08:24:54.912Z,74.0568
2023-04-02T08:25:56.366Z,74.0410
2023-04-02T08:26:57.847Z,74.0627
2023-04-02T08:27:59.292Z,74.1478
2023-04-02T08:29:00.853Z,74.0824
2023-04-02T08:30:02.316Z,73.8621
2023-04-02T08:31:03.853Z,73.3692
2023-04-02T08:32:05.276Z,73.8155
2023-04-02T08:33:06.768Z,73.2844
2023-04-02T08:34:08.195Z,73.1001
2023-04-02T08:35:09.731Z,73.3664
2023-04-02T08:36:11.304Z,72.7160
2023-04-02T08:37:12.733Z,72.3928
2023-04-02T08:38:14.140Z,72.3337
2023-04-02T08:39:15.586Z,73.2464
2023-04-02T08:40:17.023Z,72.5483
2023-04-02T08:41:18.571Z,72.6367
2023-04-02T08:42:19.984Z,72.6153
2023-04-02T08:43:23.109Z,72.9847
2023-04-02T08:44:22.973Z,73.1430
2023-04-02T08:45:25.595Z,73.0267
2023-04-02T08:46:24.918Z,72.8670
2023-04-02T08:47:26.420Z,72.8034
2023-04-02T08:48:27.841Z,72.2572
2023-04-02T08:49:29.322Z,72.3834
2023-04-02T08:50:30.861Z,72.4606
2023-04-02T08:51:32.302Z,72.6993
2023-04-02T08:52:33.740Z,72.1410
2023-04-02T08:53:35.206Z,72.5072
2023-04-02T08:54:36.676Z,72.1243
2023-04-02T08:55:38.240Z,72.4516
2023-04-02T08:56:39.737Z,72.2039
2023-04-02T08:57:41.182Z,71.9586
2023-04-02T08:58:42.610Z,71.8137
2023-04-02T08:59:44.107Z,71.9150
2023-04-02T09:00:45.562Z,71.8756
2023-04-02T09:01:47.031Z,71.0963
2023-04-02T09:02:48.480Z,70.7219
2023-04-02T09:03:49.916Z,70.8337
2023-04-02T09:04:51.439Z,71.1717
2023-04-02T09:05:52.933Z,71.3559
2023-04-02T09:06:54.369Z,71.5844
2023-04-02T09:07:55.811Z,71.8282
2023-04-02T09:08:57.267Z,72.2067
2023-04-02T09:09:58.836Z,72.4420
2023-04-02T09:11:00.306Z,72.3523
2023-04-02T09:12:01.803Z,72.0859
2023-04-02T09:13:03.198Z,72.0099
2023-04-02T09:14:04.747Z,71.4604
2023-04-02T09:15:06.214Z,70.8164
2023-04-02T09:16:07.792Z,71.0652
2023-04-02T09:17:09.251Z,71.3605
2023-04-02T09:18:10.741Z,71.1280
2023-04-02T09:19:12.166Z,70.8574
2023-04-02T09:20:13.661Z,70.3862
2023-04-02T09:21:15.112Z,69.9261
2023-04-02T09:22:16.593Z,70.0465
2023-04-02T09:23:18.044Z,69.7348
2023-04-02T09:24:19.523Z,69.5499
2023-04-02T09:25:21.021Z,69.8773
2023-04-02T09:26:22.460Z,69.3751
2023-04-02T09:27:23.893Z,69.9796
2023-04-02T09:28:25.341Z,69.9167
2023-04-02T09:29:26.769Z,69.6494
2023-04-02T09:30:28.257Z,69.1201
2023-04-02T09:31:29.705Z,70.2881
2023-04-02T09:32:31.165Z,69.4726
2023-04-02T09:33:32.536Z,69.2037
2023-04-02T09:34:34.159Z,69.8082
2023-04-02T09:35:35.597Z,69.9074
2023-04-02T09:36:37.051Z,69.5386
2023-04-02T09:37:38.464Z,69.3004
2023-04-02T09:38:39.955Z,69.3552
2023-04-02T09:39:41.430Z,68.9777
2023-04-02T09:40:43.097Z,69.9285
2023-04-02T09:41:48.186Z,70.1526
2023-04-02T09:42:44.590Z,70.0689
2023-04-02T09:43:46.046Z,70.1803
2023-04-02T09:44:47.516Z,69.5839
2023-04-02T09:45:49.282Z,68.7147
2023-04-02T09:46:50.764Z,69.1797
2023-04-02T09:47:52.240Z,68.8350
2023-04-02T09:48:53.703Z,68.7000
2023-04-02T09:49:55.149Z,68.8065
2023-04-02T09:50:56.639Z,68.5053
2023-04-02T09:51:58.732Z,68.4186
2023-04-02T09:53:00.212Z,68.6425
2023-04-02T09:54:01.681Z,67.8994
2023-04-02T09:55:03.137Z,68.1413
2023-04-02T09:56:04.617Z,68.3076
2023-04-02T09:57:06.120Z,68.1472
2023-04-02T09:58:07.575Z,68.2795
2023-04-02T09:59:09.025Z,68.1816
2023-04-02T10:00:18.371Z,68.3945
2023-04-02T10:01:10.586Z,68.2009
2023-04-02T10:02:12.024Z,68.0910
2023-04-02T10:03:13.478Z,67.4589
2023-04-02T10:04:14.951Z,66.7536
2023-04-02T10:05:23.549Z,66.8310
2023-04-02T10:06:15.550Z,66.5411
2023-04-02T10:07:16.970Z,66.3514
2023-04-02T10:08:18.446Z,66.2905
2023-04-02T10:09:19.915Z,66.2248
2023-04-02T10:10:21.406Z,65.5936
2023-04-02T10:11:22.973Z,65.9550
2023-04-02T10:12:24.930Z,66.2034
2023-04-02T10:13:26.364Z,66.1266
2023-04-02T10:14:27.829Z,65.8510
2023-04-02T10:15:29.222Z,65.6556
2023-04-02T10:16:30.708Z,65.8705
2023-04-02T10:17:32.178Z,65.5649
2023-04-02T10:18:33.722Z,65.2838
2023-04-02T10:19:35.179Z,65.3604
2023-04-02T10:20:48.597Z,65.8020
2023-04-02T10:21:36.653Z,66.0036
2023-04-02T10:22:38.117Z,65.8321
2023-04-02T10:23:39.591Z,65.9813
2023-04-02T10:24:41.052Z,65.7289
2023-04-02T10:25:42.508Z,65.0712
2023-04-02T10:26:43.990Z,64.8297
2023-04-02T10:27:45.402Z,65.2896
2023-04-02T10:28:46.895Z,65.7674
2023-04-02T10:29:48.331Z,65.4077
2023-04-02T10:30:49.814Z,65.0567
2023-04-02T10:31:51.231Z,64.8873
2023-04-02T10:32:52.728Z,65.0642
2023-04-02T10:33:54.189Z,65.4047
2023-04-02T10:34:55.622Z,64.6273
2023-04-02T10:35:57.123Z,64.8771
2023-04-02T10:36:58.541Z,65.2805
2023-04-02T10:37:59.994Z,65.2813
2023-04-02T10:39:01.414Z,65.2539
2023-04-02T10:40:02.845Z,64.9397
2023-04-02T10:41:04.324Z,65.5186
2023-04-02T10:42:05.723Z,65.8479
2023-04-02T10:43:07.181Z,65.7363
2023-04-02T10:44:18.998Z,66.0918
2023-04-02T10:45:08.707Z,66.3439
2023-04-02T10:46:10.205Z,65.6515
2023-04-02T10:47:11.737Z,64.1730
2023-04-02T10:48:13.192Z,64.8466
2023-04-02T10:49:14.672Z,64.4630
2023-04-02T10:50:16.100Z,63.9657
2023-04-02T10:51:17.596Z,63.5024
2023-04-02T10:52:19.038Z,63.5035
2023-04-02T10:53:20.485Z,64.0276
2023-04-02T10:54:21.899Z,63.5324
2023-04-02T10:55:23.366Z,63.4493
2023-04-02T10:56:24.832Z,62.1264
2023-04-02T10:57:26.304Z,61.5517
2023-04-02T10:58:27.739Z,62.3661
2023-04-02T10:59:29.194Z,61.8161
2023-04-02T11:00:30.655Z,60.9091
2023-04-02T11:01:32.156Z,61.3460
2023-04-02T11:02:33.594Z,61.8312
2023-04-02T11:03:35.197Z,61.5830
2023-04-02T11:04:36.675Z,61.5169
2023-04-02T11:05:38.158Z,61.2734
2023-04-02T11:06:39.586Z,61.4746
2023-04-02T11:07:41.021Z,61.6364
2023-04-02T11:08:42.417Z,61.4936
2023-04-02T11:09:43.896Z,61.6018
2023-04-02T11:10:45.343Z,62.8542
2023-04-02T11:11:46.789Z,62.2135
2023-04-02T11:12:48.199Z,61.3206
2023-04-02T11:13:49.657Z,61.8460
2023-04-02T11:14:51.114Z,61.5531
2023-04-02T11:15:52.579Z,62.3177
2023-04-02T11:16:54.038Z,60.8947
2023-04-02T11:17:55.513Z,60.3569
2023-04-02T11:18:56.954Z,60.2976
2023-04-02T11:19:58.377Z,60.4218
2023-04-02T11:20:59.834Z,58.9001
2023-04-02T11:22:03.113Z,60.0046
2023-04-02T11:23:01.818Z,60.5792
2023-04-02T11:24:03.218Z,60.2493
2023-04-02T11:25:04.672Z,60.3092
2023-04-02T11:26:06.115Z,60.2086
2023-04-02T11:27:07.650Z,60.1213
2023-04-02T11:28:09.073Z,60.3103
2023-04-02T11:29:10.532Z,60.1451
2023-04-02T11:30:11.972Z,59.8326
2023-04-02T11:31:13.406Z,59.4152
2023-04-02T11:32:14.818Z,60.3507
2023-04-02T11:33:18.692Z,59.0033
2023-04-02T11:34:17.554Z,59.0293
2023-04-02T11:35:19.012Z,58.9263
2023-04-02T11:36:20.420Z,58.7958
2023-04-02T11:37:21.911Z,58.5274
2023-04-02T11:38:23.294Z,57.2466
2023-04-02T11:39:24.726Z,56.9347
2023-04-02T11:40:26.154Z,55.4358
2023-04-02T11:41:27.576Z,53.5916
2023-04-02T11:42:29.023Z,54.8272
2023-04-02T11:43:30.455Z,53.8538
2023-04-02T11:44:31.838Z,54.1820
2023-04-02T11:45:40.167Z,52.6206
2023-04-02T11:46:33.221Z,53.6393
2023-04-02T11:47:34.660Z,54.4662
2023-04-02T11:48:36.273Z,55.3907
2023-04-02T11:49:37.788Z,57.4248
2023-04-02T11:50:38.255Z,58.3946
2023-04-02T11:51:39.762Z,57.6350
2023-04-02T11:52:41.272Z,59.6318
2023-04-02T11:53:42.649Z,59.3328
2023-04-02T11:54:44.074Z,59.2004
2023-04-02T11:55:45.418Z,58.8804
2023-04-02T11:56:46.793Z,59.8739
2023-04-02T11:57:48.176Z,60.1934
2023-04-02T11:58:49.527Z,59.9620
2023-04-02T11:59:50.863Z,61.2061
2023-04-02T12:00:52.267Z,60.6335
2023-04-02T12:01:53.633Z,59.5722
2023-04-02T12:02:55.016Z,58.6247
2023-04-02T12:03:56.396Z,59.7163
2023-04-02T12:04:57.721Z,62.0524
2023-04-02T12:05:59.082Z,61.1010
2023-04-02T12:07:00.463Z,62.1745
2023-04-02T12:08:01.830Z,63.0343
2023-04-02T12:09:03.271Z,62.7214
2023-04-02T12:10:04.639Z,62.0592
2023-04-02T12:11:06.016Z,61.4314
2023-04-02T12:12:07.398Z,61.3823
2023-04-02T12:13:08.795Z,61.4508
2023-04-02T12:14:10.177Z,61.6854
2023-04-02T12:15:10.165Z,62.0794
2023-04-02T12:16:11.558Z,62.5396
2023-04-02T12:17:13.091Z,62.4763
2023-04-02T12:18:14.583Z,62.1862
2023-04-02T12:19:15.968Z,61.6063
2023-04-02T12:20:17.386Z,62.0518
2023-04-02T12:21:18.795Z,62.2833
2023-04-02T12:22:20.344Z,61.0408
2023-04-02T12:23:21.745Z,59.9422